sensor_id;sensor_type;location;lat;lon;timestamp;temperature;humidity
9598;DHT22;4837;50.890;4.724;2023-12-20T00:01:33;7.40;99.90
9598;DHT22;4837;50.890;4.724;2023-12-20T00:03:58;7.40;99.90
9598;DHT22;4837;50.890;4.724;2023-12-20T00:06:24;7.30;99.90
9598;DHT22;4837;50.890;4.724;2023-12-20T00:08:50;7.30;99.90
9598;DHT22;4837;50.890;4.724;2023-12-20T00:11:16;7.30;99.90
9598;DHT22;4837;50.890;4.724;2023-12-20T00:13:42;7.30;99.90
9598;DHT22;4837;50.890;4.724;2023-12-20T00:16:07;7.20;99.90
9598;DHT22;4837;50.890;4.724;2023-12-20T00:18:33;7.30;99.90
9598;DHT22;4837;50.890;4.724;2023-12-20T00:20:59;7.20;99.90
9598;DHT22;4837;50.890;4.724;2023-12-20T00:23:25;7.20;99.90
9598;DHT22;4837;50.890;4.724;2023-12-20T00:25:50;7.20;99.90
9598;DHT22;4837;50.890;4.724;2023-12-20T00:28:16;7.20;99.90
9598;DHT22;4837;50.890;4.724;2023-12-20T00:30:42;7.30;99.90
9598;DHT22;4837;50.890;4.724;2023-12-20T00:33:08;7.30;99.90
9598;DHT22;4837;50.890;4.724;2023-12-20T00:35:33;7.40;99.90
9598;DHT22;4837;50.890;4.724;2023-12-20T00:37:59;7.40;99.90
9598;DHT22;4837;50.890;4.724;2023-12-20T00:40:25;7.40;99.90
9598;DHT22;4837;50.890;4.724;2023-12-20T00:42:51;7.30;99.90
9598;DHT22;4837;50.890;4.724;2023-12-20T00:45:17;7.30;99.90
9598;DHT22;4837;50.890;4.724;2023-12-20T00:47:43;7.30;99.90
9598;DHT22;4837;50.890;4.724;2023-12-20T00:50:09;7.20;99.90
9598;DHT22;4837;50.890;4.724;2023-12-20T00:52:35;7.20;99.90
9598;DHT22;4837;50.890;4.724;2023-12-20T00:55:00;7.20;99.90
9598;DHT22;4837;50.890;4.724;2023-12-20T00:57:26;7.20;99.90
9598;DHT22;4837;50.890;4.724;2023-12-20T00:59:52;7.10;99.90
9598;DHT22;4837;50.890;4.724;2023-12-20T01:02:18;7.10;99.90
9598;DHT22;4837;50.890;4.724;2023-12-20T01:04:44;7.10;99.90
9598;DHT22;4837;50.890;4.724;2023-12-20T01:07:10;7.10;99.90
9598;DHT22;4837;50.890;4.724;2023-12-20T01:09:36;6.90;99.90
9598;DHT22;4837;50.890;4.724;2023-12-20T01:12:02;7.00;99.90
9598;DHT22;4837;50.890;4.724;2023-12-20T01:14:27;7.00;99.90
9598;DHT22;4837;50.890;4.724;2023-12-20T01:16:53;7.00;99.90
9598;DHT22;4837;50.890;4.724;2023-12-20T01:19:19;7.00;99.90
9598;DHT22;4837;50.890;4.724;2023-12-20T01:21:45;7.00;99.90
9598;DHT22;4837;50.890;4.724;2023-12-20T01:24:10;7.00;99.90
9598;DHT22;4837;50.890;4.724;2023-12-20T01:26:37;6.90;99.90
9598;DHT22;4837;50.890;4.724;2023-12-20T01:29:02;6.90;99.90
9598;DHT22;4837;50.890;4.724;2023-12-20T01:31:28;6.90;99.90
9598;DHT22;4837;50.890;4.724;2023-12-20T01:33:54;6.90;99.90
9598;DHT22;4837;50.890;4.724;2023-12-20T01:36:20;6.90;99.90
9598;DHT22;4837;50.890;4.724;2023-12-20T01:38:45;6.90;99.90
9598;DHT22;4837;50.890;4.724;2023-12-20T01:41:11;6.90;99.90
9598;DHT22;4837;50.890;4.724;2023-12-20T01:43:37;6.90;99.90
9598;DHT22;4837;50.890;4.724;2023-12-20T01:46:03;6.80;99.90
9598;DHT22;4837;50.890;4.724;2023-12-20T01:48:29;6.90;99.90
9598;DHT22;4837;50.890;4.724;2023-12-20T01:50:59;6.80;99.90
9598;DHT22;4837;50.890;4.724;2023-12-20T01:53:25;6.80;99.90
9598;DHT22;4837;50.890;4.724;2023-12-20T01:55:52;6.80;99.90
9598;DHT22;4837;50.890;4.724;2023-12-20T01:58:20;6.80;99.90
9598;DHT22;4837;50.890;4.724;2023-12-20T02:00:46;6.80;99.90
9598;DHT22;4837;50.890;4.724;2023-12-20T02:03:12;6.80;99.90
9598;DHT22;4837;50.890;4.724;2023-12-20T02:05:38;6.80;99.90
9598;DHT22;4837;50.890;4.724;2023-12-20T02:08:04;6.80;99.90
9598;DHT22;4837;50.890;4.724;2023-12-20T02:10:31;6.80;99.90
9598;DHT22;4837;50.890;4.724;2023-12-20T02:12:57;6.80;99.90
9598;DHT22;4837;50.890;4.724;2023-12-20T02:15:23;6.80;99.90
9598;DHT22;4837;50.890;4.724;2023-12-20T02:17:49;6.80;99.90
9598;DHT22;4837;50.890;4.724;2023-12-20T02:20:16;6.80;99.90
9598;DHT22;4837;50.890;4.724;2023-12-20T02:22:41;6.80;99.90
9598;DHT22;4837;50.890;4.724;2023-12-20T02:25:07;6.70;99.90
9598;DHT22;4837;50.890;4.724;2023-12-20T02:27:34;6.70;99.90
9598;DHT22;4837;50.890;4.724;2023-12-20T02:30:00;6.70;99.90
9598;DHT22;4837;50.890;4.724;2023-12-20T02:32:26;6.70;99.90
9598;DHT22;4837;50.890;4.724;2023-12-20T02:34:52;6.70;99.90
9598;DHT22;4837;50.890;4.724;2023-12-20T02:37:17;6.80;99.90
9598;DHT22;4837;50.890;4.724;2023-12-20T02:39:43;6.80;99.90
9598;DHT22;4837;50.890;4.724;2023-12-20T02:42:09;6.70;99.90
9598;DHT22;4837;50.890;4.724;2023-12-20T02:44:35;6.70;99.90
9598;DHT22;4837;50.890;4.724;2023-12-20T02:47:02;6.70;99.90
9598;DHT22;4837;50.890;4.724;2023-12-20T02:49:28;6.80;99.90
9598;DHT22;4837;50.890;4.724;2023-12-20T02:51:54;6.90;99.90
9598;DHT22;4837;50.890;4.724;2023-12-20T02:54:20;6.90;99.90
9598;DHT22;4837;50.890;4.724;2023-12-20T02:56:45;7.00;99.90
9598;DHT22;4837;50.890;4.724;2023-12-20T02:59:11;7.00;99.90
9598;DHT22;4837;50.890;4.724;2023-12-20T03:01:44;7.00;99.90
9598;DHT22;4837;50.890;4.724;2023-12-20T03:04:11;7.00;99.90
9598;DHT22;4837;50.890;4.724;2023-12-20T03:06:36;7.00;99.90
9598;DHT22;4837;50.890;4.724;2023-12-20T03:09:02;6.90;99.90
9598;DHT22;4837;50.890;4.724;2023-12-20T03:11:28;6.70;99.90
9598;DHT22;4837;50.890;4.724;2023-12-20T03:13:55;6.80;99.90
9598;DHT22;4837;50.890;4.724;2023-12-20T03:16:20;6.80;99.90
9598;DHT22;4837;50.890;4.724;2023-12-20T03:18:46;6.70;99.90
9598;DHT22;4837;50.890;4.724;2023-12-20T03:21:12;6.70;99.90
9598;DHT22;4837;50.890;4.724;2023-12-20T03:23:38;6.80;99.90
9598;DHT22;4837;50.890;4.724;2023-12-20T03:26:07;6.70;99.90
9598;DHT22;4837;50.890;4.724;2023-12-20T03:28:32;6.60;99.90
9598;DHT22;4837;50.890;4.724;2023-12-20T03:30:58;6.60;99.90
9598;DHT22;4837;50.890;4.724;2023-12-20T03:33:24;6.60;99.90
9598;DHT22;4837;50.890;4.724;2023-12-20T03:35:50;6.70;99.90
9598;DHT22;4837;50.890;4.724;2023-12-20T03:38:16;6.70;99.90
9598;DHT22;4837;50.890;4.724;2023-12-20T03:40:41;6.70;99.90
9598;DHT22;4837;50.890;4.724;2023-12-20T03:43:07;6.70;99.90
9598;DHT22;4837;50.890;4.724;2023-12-20T03:45:33;6.70;99.90
9598;DHT22;4837;50.890;4.724;2023-12-20T03:47:59;6.70;99.90
9598;DHT22;4837;50.890;4.724;2023-12-20T03:50:26;6.70;99.90
9598;DHT22;4837;50.890;4.724;2023-12-20T03:52:52;6.70;99.90
9598;DHT22;4837;50.890;4.724;2023-12-20T03:55:18;6.70;99.90
9598;DHT22;4837;50.890;4.724;2023-12-20T03:57:44;6.60;99.90
9598;DHT22;4837;50.890;4.724;2023-12-20T04:00:10;6.60;99.90
9598;DHT22;4837;50.890;4.724;2023-12-20T04:02:40;6.60;99.90
9598;DHT22;4837;50.890;4.724;2023-12-20T04:05:07;6.60;99.90
9598;DHT22;4837;50.890;4.724;2023-12-20T04:07:34;6.50;99.90
9598;DHT22;4837;50.890;4.724;2023-12-20T04:10:00;6.50;99.90
9598;DHT22;4837;50.890;4.724;2023-12-20T04:12:28;6.60;99.90
9598;DHT22;4837;50.890;4.724;2023-12-20T04:14:53;6.60;99.90
9598;DHT22;4837;50.890;4.724;2023-12-20T04:17:20;6.50;99.90
9598;DHT22;4837;50.890;4.724;2023-12-20T04:19:46;6.50;99.90
9598;DHT22;4837;50.890;4.724;2023-12-20T04:22:11;6.50;99.90
9598;DHT22;4837;50.890;4.724;2023-12-20T04:24:37;6.50;99.90
9598;DHT22;4837;50.890;4.724;2023-12-20T04:27:03;6.50;99.90
9598;DHT22;4837;50.890;4.724;2023-12-20T04:29:29;6.50;99.90
9598;DHT22;4837;50.890;4.724;2023-12-20T04:31:55;6.50;99.90
9598;DHT22;4837;50.890;4.724;2023-12-20T04:34:21;6.40;99.90
9598;DHT22;4837;50.890;4.724;2023-12-20T04:36:47;6.40;99.90
9598;DHT22;4837;50.890;4.724;2023-12-20T04:39:13;6.40;99.90
9598;DHT22;4837;50.890;4.724;2023-12-20T04:41:40;6.40;99.90
9598;DHT22;4837;50.890;4.724;2023-12-20T04:44:06;6.40;99.90
9598;DHT22;4837;50.890;4.724;2023-12-20T04:46:32;6.40;99.90
9598;DHT22;4837;50.890;4.724;2023-12-20T04:48:58;6.40;99.90
9598;DHT22;4837;50.890;4.724;2023-12-20T04:51:24;6.40;99.90
9598;DHT22;4837;50.890;4.724;2023-12-20T04:53:50;6.40;99.90
9598;DHT22;4837;50.890;4.724;2023-12-20T04:56:16;6.40;99.90
9598;DHT22;4837;50.890;4.724;2023-12-20T04:58:42;6.40;99.90
9598;DHT22;4837;50.890;4.724;2023-12-20T05:01:09;6.40;99.90
9598;DHT22;4837;50.890;4.724;2023-12-20T05:03:35;6.40;99.90
9598;DHT22;4837;50.890;4.724;2023-12-20T05:06:01;6.40;99.90
9598;DHT22;4837;50.890;4.724;2023-12-20T05:08:27;6.40;99.90
9598;DHT22;4837;50.890;4.724;2023-12-20T05:10:54;6.40;99.90
9598;DHT22;4837;50.890;4.724;2023-12-20T05:13:20;6.30;99.90
9598;DHT22;4837;50.890;4.724;2023-12-20T05:15:46;6.30;99.90
9598;DHT22;4837;50.890;4.724;2023-12-20T05:18:12;6.30;99.90
9598;DHT22;4837;50.890;4.724;2023-12-20T05:20:38;6.30;99.90
9598;DHT22;4837;50.890;4.724;2023-12-20T05:23:04;6.30;99.90
9598;DHT22;4837;50.890;4.724;2023-12-20T05:25:31;6.30;99.90
9598;DHT22;4837;50.890;4.724;2023-12-20T05:27:56;6.20;99.90
9598;DHT22;4837;50.890;4.724;2023-12-20T05:30:22;6.20;99.90
9598;DHT22;4837;50.890;4.724;2023-12-20T05:32:48;6.20;99.90
9598;DHT22;4837;50.890;4.724;2023-12-20T05:35:14;6.20;99.90
9598;DHT22;4837;50.890;4.724;2023-12-20T05:37:41;6.20;99.90
9598;DHT22;4837;50.890;4.724;2023-12-20T05:40:07;6.10;99.90
9598;DHT22;4837;50.890;4.724;2023-12-20T05:42:36;6.10;99.90
9598;DHT22;4837;50.890;4.724;2023-12-20T05:45:02;6.20;99.90
9598;DHT22;4837;50.890;4.724;2023-12-20T05:47:28;6.20;99.90
9598;DHT22;4837;50.890;4.724;2023-12-20T05:49:54;6.20;99.90
9598;DHT22;4837;50.890;4.724;2023-12-20T05:52:20;6.20;99.90
9598;DHT22;4837;50.890;4.724;2023-12-20T05:54:45;6.20;99.90
9598;DHT22;4837;50.890;4.724;2023-12-20T05:57:11;6.20;99.90
9598;DHT22;4837;50.890;4.724;2023-12-20T05:59:37;6.20;99.90
9598;DHT22;4837;50.890;4.724;2023-12-20T06:02:04;6.20;99.90
9598;DHT22;4837;50.890;4.724;2023-12-20T06:04:30;6.20;99.90
9598;DHT22;4837;50.890;4.724;2023-12-20T06:06:56;6.10;99.90
9598;DHT22;4837;50.890;4.724;2023-12-20T06:09:22;6.20;99.90
9598;DHT22;4837;50.890;4.724;2023-12-20T06:11:47;6.10;99.90
9598;DHT22;4837;50.890;4.724;2023-12-20T06:14:13;6.20;99.90
9598;DHT22;4837;50.890;4.724;2023-12-20T06:16:39;6.20;99.90
9598;DHT22;4837;50.890;4.724;2023-12-20T06:19:05;6.20;99.90
9598;DHT22;4837;50.890;4.724;2023-12-20T06:21:30;6.20;99.90
9598;DHT22;4837;50.890;4.724;2023-12-20T06:23:58;6.20;99.90
9598;DHT22;4837;50.890;4.724;2023-12-20T06:26:24;6.20;99.90
9598;DHT22;4837;50.890;4.724;2023-12-20T06:28:49;6.20;99.90
9598;DHT22;4837;50.890;4.724;2023-12-20T06:31:15;6.20;99.90
9598;DHT22;4837;50.890;4.724;2023-12-20T06:33:41;6.20;99.90
9598;DHT22;4837;50.890;4.724;2023-12-20T06:36:07;6.30;99.90
9598;DHT22;4837;50.890;4.724;2023-12-20T06:38:33;6.30;99.90
9598;DHT22;4837;50.890;4.724;2023-12-20T06:40:59;6.30;99.90
9598;DHT22;4837;50.890;4.724;2023-12-20T06:43:25;6.30;99.90
9598;DHT22;4837;50.890;4.724;2023-12-20T06:45:50;6.30;99.90
9598;DHT22;4837;50.890;4.724;2023-12-20T06:48:16;6.20;99.90
9598;DHT22;4837;50.890;4.724;2023-12-20T06:50:42;6.20;99.90
9598;DHT22;4837;50.890;4.724;2023-12-20T06:53:08;6.20;99.90
9598;DHT22;4837;50.890;4.724;2023-12-20T06:55:35;6.20;99.90
9598;DHT22;4837;50.890;4.724;2023-12-20T06:58:03;6.20;99.90
9598;DHT22;4837;50.890;4.724;2023-12-20T07:00:30;6.10;99.90
9598;DHT22;4837;50.890;4.724;2023-12-20T07:02:56;6.10;99.90
9598;DHT22;4837;50.890;4.724;2023-12-20T07:05:22;6.10;99.90
9598;DHT22;4837;50.890;4.724;2023-12-20T07:07:48;6.10;99.90
9598;DHT22;4837;50.890;4.724;2023-12-20T07:10:14;6.10;99.90
9598;DHT22;4837;50.890;4.724;2023-12-20T07:12:39;6.20;99.90
9598;DHT22;4837;50.890;4.724;2023-12-20T07:15:05;6.20;99.90
9598;DHT22;4837;50.890;4.724;2023-12-20T07:17:33;6.10;99.90
9598;DHT22;4837;50.890;4.724;2023-12-20T07:19:59;6.10;99.90
9598;DHT22;4837;50.890;4.724;2023-12-20T07:22:29;6.10;99.90
9598;DHT22;4837;50.890;4.724;2023-12-20T07:25:00;6.10;99.90
9598;DHT22;4837;50.890;4.724;2023-12-20T07:27:26;6.10;99.90
9598;DHT22;4837;50.890;4.724;2023-12-20T07:29:52;6.10;99.90
9598;DHT22;4837;50.890;4.724;2023-12-20T07:32:18;6.10;99.90
9598;DHT22;4837;50.890;4.724;2023-12-20T07:34:44;6.10;99.90
9598;DHT22;4837;50.890;4.724;2023-12-20T07:37:10;6.00;99.90
9598;DHT22;4837;50.890;4.724;2023-12-20T07:39:40;6.10;99.90
9598;DHT22;4837;50.890;4.724;2023-12-20T07:42:07;6.00;99.90
9598;DHT22;4837;50.890;4.724;2023-12-20T07:44:33;6.00;99.90
9598;DHT22;4837;50.890;4.724;2023-12-20T07:46:59;6.20;99.90
9598;DHT22;4837;50.890;4.724;2023-12-20T07:49:26;6.00;99.90
9598;DHT22;4837;50.890;4.724;2023-12-20T07:51:52;6.00;99.90
9598;DHT22;4837;50.890;4.724;2023-12-20T07:54:18;6.00;99.90
9598;DHT22;4837;50.890;4.724;2023-12-20T07:56:44;6.00;99.90
9598;DHT22;4837;50.890;4.724;2023-12-20T07:59:09;6.00;99.90
9598;DHT22;4837;50.890;4.724;2023-12-20T08:01:35;6.00;99.90
9598;DHT22;4837;50.890;4.724;2023-12-20T08:04:01;6.00;99.90
9598;DHT22;4837;50.890;4.724;2023-12-20T08:06:27;6.00;99.90
9598;DHT22;4837;50.890;4.724;2023-12-20T08:08:53;6.00;99.90
9598;DHT22;4837;50.890;4.724;2023-12-20T08:11:19;6.00;99.90
9598;DHT22;4837;50.890;4.724;2023-12-20T08:13:44;6.00;99.90
9598;DHT22;4837;50.890;4.724;2023-12-20T08:16:10;6.00;99.90
9598;DHT22;4837;50.890;4.724;2023-12-20T08:18:39;6.10;99.90
9598;DHT22;4837;50.890;4.724;2023-12-20T08:21:05;6.10;99.90
9598;DHT22;4837;50.890;4.724;2023-12-20T08:23:33;6.10;99.90
9598;DHT22;4837;50.890;4.724;2023-12-20T08:26:06;6.10;99.90
9598;DHT22;4837;50.890;4.724;2023-12-20T08:28:31;6.10;99.90
9598;DHT22;4837;50.890;4.724;2023-12-20T08:30:57;6.10;99.90
9598;DHT22;4837;50.890;4.724;2023-12-20T08:33:24;6.20;99.90
9598;DHT22;4837;50.890;4.724;2023-12-20T08:35:50;6.20;99.90
9598;DHT22;4837;50.890;4.724;2023-12-20T08:38:15;6.30;99.90
9598;DHT22;4837;50.890;4.724;2023-12-20T08:40:42;6.30;99.90
9598;DHT22;4837;50.890;4.724;2023-12-20T08:43:08;6.20;99.90
9598;DHT22;4837;50.890;4.724;2023-12-20T08:45:34;6.50;99.90
9598;DHT22;4837;50.890;4.724;2023-12-20T08:48:00;6.60;99.90
9598;DHT22;4837;50.890;4.724;2023-12-20T08:50:26;6.60;99.90
9598;DHT22;4837;50.890;4.724;2023-12-20T08:52:51;6.60;99.90
9598;DHT22;4837;50.890;4.724;2023-12-20T08:55:18;6.60;99.90
9598;DHT22;4837;50.890;4.724;2023-12-20T08:57:44;6.60;99.90
9598;DHT22;4837;50.890;4.724;2023-12-20T09:00:11;6.60;99.90
9598;DHT22;4837;50.890;4.724;2023-12-20T09:02:37;6.60;99.90
9598;DHT22;4837;50.890;4.724;2023-12-20T09:05:03;6.60;99.90
9598;DHT22;4837;50.890;4.724;2023-12-20T09:07:29;6.70;99.90
9598;DHT22;4837;50.890;4.724;2023-12-20T09:09:58;6.70;99.90
9598;DHT22;4837;50.890;4.724;2023-12-20T09:12:24;6.70;99.90
9598;DHT22;4837;50.890;4.724;2023-12-20T09:14:51;6.70;99.90
9598;DHT22;4837;50.890;4.724;2023-12-20T09:17:17;6.70;99.90
9598;DHT22;4837;50.890;4.724;2023-12-20T09:19:44;6.70;99.90
9598;DHT22;4837;50.890;4.724;2023-12-20T09:22:10;6.70;99.90
9598;DHT22;4837;50.890;4.724;2023-12-20T09:24:36;6.70;99.90
9598;DHT22;4837;50.890;4.724;2023-12-20T09:27:02;6.70;99.90
9598;DHT22;4837;50.890;4.724;2023-12-20T09:29:28;6.80;99.90
9598;DHT22;4837;50.890;4.724;2023-12-20T09:31:54;6.80;99.90
9598;DHT22;4837;50.890;4.724;2023-12-20T09:34:20;6.80;99.90
9598;DHT22;4837;50.890;4.724;2023-12-20T09:36:46;6.80;99.90
9598;DHT22;4837;50.890;4.724;2023-12-20T09:39:17;6.90;99.90
9598;DHT22;4837;50.890;4.724;2023-12-20T09:42:03;6.90;99.90
9598;DHT22;4837;50.890;4.724;2023-12-20T09:44:30;7.00;99.90
9598;DHT22;4837;50.890;4.724;2023-12-20T09:46:57;7.00;99.90
9598;DHT22;4837;50.890;4.724;2023-12-20T09:49:23;7.00;99.90
9598;DHT22;4837;50.890;4.724;2023-12-20T09:51:55;7.20;99.90
9598;DHT22;4837;50.890;4.724;2023-12-20T09:54:22;7.20;99.90
9598;DHT22;4837;50.890;4.724;2023-12-20T09:56:48;7.20;99.90
9598;DHT22;4837;50.890;4.724;2023-12-20T09:59:14;7.20;99.90
9598;DHT22;4837;50.890;4.724;2023-12-20T10:01:41;7.30;99.90
9598;DHT22;4837;50.890;4.724;2023-12-20T10:04:09;7.40;99.90
9598;DHT22;4837;50.890;4.724;2023-12-20T10:06:37;7.50;99.90
9598;DHT22;4837;50.890;4.724;2023-12-20T10:09:03;7.50;99.90
9598;DHT22;4837;50.890;4.724;2023-12-20T10:11:29;7.50;99.90
9598;DHT22;4837;50.890;4.724;2023-12-20T10:14:01;7.60;99.90
9598;DHT22;4837;50.890;4.724;2023-12-20T10:16:28;7.60;99.90
9598;DHT22;4837;50.890;4.724;2023-12-20T10:18:55;7.60;99.90
9598;DHT22;4837;50.890;4.724;2023-12-20T10:21:21;7.60;99.90
9598;DHT22;4837;50.890;4.724;2023-12-20T10:23:50;7.70;99.90
9598;DHT22;4837;50.890;4.724;2023-12-20T10:26:24;7.70;99.90
9598;DHT22;4837;50.890;4.724;2023-12-20T10:28:51;7.80;99.90
9598;DHT22;4837;50.890;4.724;2023-12-20T10:31:31;7.80;99.90
9598;DHT22;4837;50.890;4.724;2023-12-20T10:33:58;7.80;99.90
9598;DHT22;4837;50.890;4.724;2023-12-20T10:36:32;7.80;99.90
9598;DHT22;4837;50.890;4.724;2023-12-20T10:38:59;7.90;99.90
9598;DHT22;4837;50.890;4.724;2023-12-20T10:41:32;7.90;99.90
9598;DHT22;4837;50.890;4.724;2023-12-20T10:44:04;8.00;99.90
9598;DHT22;4837;50.890;4.724;2023-12-20T10:46:30;7.90;99.90
9598;DHT22;4837;50.890;4.724;2023-12-20T10:48:58;7.90;99.90
9598;DHT22;4837;50.890;4.724;2023-12-20T10:51:25;7.90;99.90
9598;DHT22;4837;50.890;4.724;2023-12-20T10:53:56;7.90;99.90
9598;DHT22;4837;50.890;4.724;2023-12-20T10:56:22;7.90;99.90
9598;DHT22;4837;50.890;4.724;2023-12-20T10:58:49;7.90;99.90
9598;DHT22;4837;50.890;4.724;2023-12-20T11:01:17;7.90;99.90
9598;DHT22;4837;50.890;4.724;2023-12-20T11:03:53;8.00;99.90
9598;DHT22;4837;50.890;4.724;2023-12-20T11:14:46;8.00;99.90
9598;DHT22;4837;50.890;4.724;2023-12-20T11:17:12;8.10;99.90
9598;DHT22;4837;50.890;4.724;2023-12-20T11:22:26;8.20;99.90
9598;DHT22;4837;50.890;4.724;2023-12-20T11:24:53;8.20;99.90
9598;DHT22;4837;50.890;4.724;2023-12-20T11:27:20;8.20;99.90
9598;DHT22;4837;50.890;4.724;2023-12-20T11:29:53;8.20;99.90
9598;DHT22;4837;50.890;4.724;2023-12-20T11:37:37;8.30;99.90
9598;DHT22;4837;50.890;4.724;2023-12-20T11:40:07;8.30;99.90
9598;DHT22;4837;50.890;4.724;2023-12-20T11:42:48;8.30;99.90
9598;DHT22;4837;50.890;4.724;2023-12-20T11:45:23;8.40;99.90
9598;DHT22;4837;50.890;4.724;2023-12-20T11:47:51;8.30;99.90
9598;DHT22;4837;50.890;4.724;2023-12-20T11:50:17;8.40;99.90
9598;DHT22;4837;50.890;4.724;2023-12-20T11:52:44;8.40;99.90
9598;DHT22;4837;50.890;4.724;2023-12-20T11:55:09;8.50;99.90
9598;DHT22;4837;50.890;4.724;2023-12-20T11:57:36;8.50;99.90
9598;DHT22;4837;50.890;4.724;2023-12-20T12:00:03;8.50;99.90
9598;DHT22;4837;50.890;4.724;2023-12-20T12:02:29;8.50;99.90
9598;DHT22;4837;50.890;4.724;2023-12-20T12:04:55;8.60;99.90
9598;DHT22;4837;50.890;4.724;2023-12-20T12:07:22;8.70;99.90
9598;DHT22;4837;50.890;4.724;2023-12-20T12:09:48;8.60;99.90
9598;DHT22;4837;50.890;4.724;2023-12-20T12:12:14;8.60;99.90
9598;DHT22;4837;50.890;4.724;2023-12-20T12:14:40;8.50;99.90
9598;DHT22;4837;50.890;4.724;2023-12-20T12:17:13;8.50;99.90
9598;DHT22;4837;50.890;4.724;2023-12-20T12:19:40;8.50;99.90
9598;DHT22;4837;50.890;4.724;2023-12-20T12:22:07;8.50;99.90
9598;DHT22;4837;50.890;4.724;2023-12-20T12:24:34;8.50;99.90
9598;DHT22;4837;50.890;4.724;2023-12-20T12:27:00;8.50;99.90
9598;DHT22;4837;50.890;4.724;2023-12-20T12:29:27;8.50;99.90
9598;DHT22;4837;50.890;4.724;2023-12-20T12:31:53;8.50;99.90
9598;DHT22;4837;50.890;4.724;2023-12-20T12:34:19;8.50;99.90
9598;DHT22;4837;50.890;4.724;2023-12-20T12:36:45;8.50;99.90
9598;DHT22;4837;50.890;4.724;2023-12-20T12:39:18;8.50;99.90
9598;DHT22;4837;50.890;4.724;2023-12-20T12:41:44;8.50;99.90
9598;DHT22;4837;50.890;4.724;2023-12-20T12:44:10;8.50;99.90
9598;DHT22;4837;50.890;4.724;2023-12-20T12:46:35;8.50;99.90
9598;DHT22;4837;50.890;4.724;2023-12-20T12:49:01;8.60;99.90
9598;DHT22;4837;50.890;4.724;2023-12-20T12:51:27;8.60;99.90
9598;DHT22;4837;50.890;4.724;2023-12-20T12:53:53;8.60;99.90
9598;DHT22;4837;50.890;4.724;2023-12-20T12:56:19;8.70;99.90
9598;DHT22;4837;50.890;4.724;2023-12-20T12:58:45;8.60;99.90
9598;DHT22;4837;50.890;4.724;2023-12-20T13:01:11;8.60;99.90
9598;DHT22;4837;50.890;4.724;2023-12-20T13:03:37;8.60;99.90
9598;DHT22;4837;50.890;4.724;2023-12-20T13:06:03;8.60;99.90
9598;DHT22;4837;50.890;4.724;2023-12-20T13:08:30;8.60;99.90
9598;DHT22;4837;50.890;4.724;2023-12-20T13:10:56;8.60;99.90
9598;DHT22;4837;50.890;4.724;2023-12-20T13:13:24;8.60;99.90
9598;DHT22;4837;50.890;4.724;2023-12-20T13:15:50;8.60;99.90
9598;DHT22;4837;50.890;4.724;2023-12-20T13:18:18;8.60;99.90
9598;DHT22;4837;50.890;4.724;2023-12-20T13:20:44;8.60;99.90
9598;DHT22;4837;50.890;4.724;2023-12-20T13:23:10;8.60;99.90
9598;DHT22;4837;50.890;4.724;2023-12-20T13:25:36;8.60;99.90
9598;DHT22;4837;50.890;4.724;2023-12-20T13:28:02;8.60;99.90
9598;DHT22;4837;50.890;4.724;2023-12-20T13:30:29;8.60;99.90
9598;DHT22;4837;50.890;4.724;2023-12-20T13:32:55;8.60;99.90
9598;DHT22;4837;50.890;4.724;2023-12-20T13:35:21;8.70;99.90
9598;DHT22;4837;50.890;4.724;2023-12-20T13:37:47;8.70;99.90
9598;DHT22;4837;50.890;4.724;2023-12-20T13:40:12;8.70;99.90
9598;DHT22;4837;50.890;4.724;2023-12-20T13:42:41;8.70;99.90
9598;DHT22;4837;50.890;4.724;2023-12-20T13:45:08;8.70;99.90
9598;DHT22;4837;50.890;4.724;2023-12-20T13:47:34;8.70;99.90
9598;DHT22;4837;50.890;4.724;2023-12-20T13:50:00;8.70;99.90
9598;DHT22;4837;50.890;4.724;2023-12-20T13:52:26;8.70;99.90
9598;DHT22;4837;50.890;4.724;2023-12-20T13:54:52;8.70;99.90
9598;DHT22;4837;50.890;4.724;2023-12-20T13:57:18;8.70;99.90
9598;DHT22;4837;50.890;4.724;2023-12-20T13:59:44;8.70;99.90
9598;DHT22;4837;50.890;4.724;2023-12-20T14:02:10;8.80;99.90
9598;DHT22;4837;50.890;4.724;2023-12-20T14:04:36;8.80;99.90
9598;DHT22;4837;50.890;4.724;2023-12-20T14:07:04;8.80;99.90
9598;DHT22;4837;50.890;4.724;2023-12-20T14:09:30;8.80;99.90
9598;DHT22;4837;50.890;4.724;2023-12-20T14:11:56;8.80;99.90
9598;DHT22;4837;50.890;4.724;2023-12-20T14:14:21;8.80;99.90
9598;DHT22;4837;50.890;4.724;2023-12-20T14:16:47;8.80;99.90
9598;DHT22;4837;50.890;4.724;2023-12-20T14:19:13;8.80;99.90
9598;DHT22;4837;50.890;4.724;2023-12-20T14:21:39;8.80;99.90
9598;DHT22;4837;50.890;4.724;2023-12-20T14:24:05;8.90;99.90
9598;DHT22;4837;50.890;4.724;2023-12-20T14:26:31;8.90;99.90
9598;DHT22;4837;50.890;4.724;2023-12-20T14:28:57;8.90;99.90
9598;DHT22;4837;50.890;4.724;2023-12-20T14:31:23;8.90;99.90
9598;DHT22;4837;50.890;4.724;2023-12-20T14:33:51;9.00;99.90
9598;DHT22;4837;50.890;4.724;2023-12-20T14:36:19;9.00;99.90
9598;DHT22;4837;50.890;4.724;2023-12-20T14:38:45;9.00;99.90
9598;DHT22;4837;50.890;4.724;2023-12-20T14:41:12;9.00;99.90
9598;DHT22;4837;50.890;4.724;2023-12-20T14:43:38;9.00;99.90
9598;DHT22;4837;50.890;4.724;2023-12-20T14:46:04;9.00;99.90
9598;DHT22;4837;50.890;4.724;2023-12-20T14:48:31;9.00;99.90
9598;DHT22;4837;50.890;4.724;2023-12-20T14:50:58;9.10;99.90
9598;DHT22;4837;50.890;4.724;2023-12-20T14:53:25;9.00;99.90
9598;DHT22;4837;50.890;4.724;2023-12-20T14:55:50;9.10;99.90
9598;DHT22;4837;50.890;4.724;2023-12-20T14:58:17;9.10;99.90
9598;DHT22;4837;50.890;4.724;2023-12-20T15:00:42;9.10;99.90
9598;DHT22;4837;50.890;4.724;2023-12-20T15:03:09;9.10;99.90
9598;DHT22;4837;50.890;4.724;2023-12-20T15:05:35;9.10;99.90
9598;DHT22;4837;50.890;4.724;2023-12-20T15:08:01;9.10;99.90
9598;DHT22;4837;50.890;4.724;2023-12-20T15:10:27;9.10;99.90
9598;DHT22;4837;50.890;4.724;2023-12-20T15:12:53;9.10;99.90
9598;DHT22;4837;50.890;4.724;2023-12-20T15:15:20;9.10;99.90
9598;DHT22;4837;50.890;4.724;2023-12-20T15:17:46;9.10;99.90
9598;DHT22;4837;50.890;4.724;2023-12-20T15:20:12;9.10;99.90
9598;DHT22;4837;50.890;4.724;2023-12-20T15:22:38;9.10;99.90
9598;DHT22;4837;50.890;4.724;2023-12-20T15:25:05;9.10;99.90
9598;DHT22;4837;50.890;4.724;2023-12-20T15:27:34;9.10;99.90
9598;DHT22;4837;50.890;4.724;2023-12-20T15:30:03;9.10;99.90
9598;DHT22;4837;50.890;4.724;2023-12-20T15:32:29;9.10;99.90
9598;DHT22;4837;50.890;4.724;2023-12-20T15:34:55;9.10;99.90
9598;DHT22;4837;50.890;4.724;2023-12-20T15:37:21;9.10;99.90
9598;DHT22;4837;50.890;4.724;2023-12-20T15:39:47;9.10;99.90
9598;DHT22;4837;50.890;4.724;2023-12-20T15:42:13;9.10;99.90
9598;DHT22;4837;50.890;4.724;2023-12-20T15:44:39;9.10;99.90
9598;DHT22;4837;50.890;4.724;2023-12-20T15:47:05;9.10;99.90
9598;DHT22;4837;50.890;4.724;2023-12-20T15:49:30;9.10;99.90
9598;DHT22;4837;50.890;4.724;2023-12-20T15:51:56;9.10;99.90
9598;DHT22;4837;50.890;4.724;2023-12-20T15:54:22;9.20;99.90
9598;DHT22;4837;50.890;4.724;2023-12-20T15:56:47;9.20;99.90
9598;DHT22;4837;50.890;4.724;2023-12-20T15:59:13;9.20;99.90
9598;DHT22;4837;50.890;4.724;2023-12-20T16:01:39;9.20;99.90
9598;DHT22;4837;50.890;4.724;2023-12-20T16:04:05;9.20;99.90
9598;DHT22;4837;50.890;4.724;2023-12-20T16:06:31;9.20;99.90
9598;DHT22;4837;50.890;4.724;2023-12-20T16:08:56;9.20;99.90
9598;DHT22;4837;50.890;4.724;2023-12-20T16:11:22;9.20;99.90
9598;DHT22;4837;50.890;4.724;2023-12-20T16:13:48;9.20;99.90
9598;DHT22;4837;50.890;4.724;2023-12-20T16:16:16;9.20;99.90
9598;DHT22;4837;50.890;4.724;2023-12-20T16:18:42;9.20;99.90
9598;DHT22;4837;50.890;4.724;2023-12-20T16:21:07;9.20;99.90
9598;DHT22;4837;50.890;4.724;2023-12-20T16:23:33;9.20;99.90
9598;DHT22;4837;50.890;4.724;2023-12-20T16:25:59;9.20;99.90
9598;DHT22;4837;50.890;4.724;2023-12-20T16:28:25;9.20;99.90